Terminal Aerodrome Forecast
Issued by NWS Lake Charles, LA

Current Version | Previous Version | Text Only | Print | Product List | Glossary On
Versions: 1 2 3 4 5 6 7 8 9 10 11 12 13 14
000
FTUS44 KLCH 291100
TAFBPT
TAF
KBPT 291137Z 2912/3012 17005KT 1/2SM FG VV002
      TEMPO 2912/2915 1/4SM FG VV001
     FM291500 20006KT P6SM SCT250
     FM291800 24009KT P6SM SCT180
     FM300100 33009KT P6SM BKN050
     FM300600 01012KT P6SM BKN040=

USA.gov is the U.S. government's official web portal to all federal, state and local government web resources and services.